Paris, OH (44669)

1:09 AM EST on January 30, 2015 (GMT -0500)
Parks Ave | Change Station
CLOSE
Current Station
Personal Weather Station
Location: Alliance, OH
Elevation: 1211 ft
Nearby Weather Stations

Elev 1211 ft 40.88 °N, 81.19 °W | Updated 14 minutes ago

Overcast
Overcast
29.2 °F
Feels Like 29 °F
N
3.0
Wind Variable Wind from West

Today
High -- | Low -- °F
--% Chance of Precip.
Yesterday
High -- | Low -- °F
Precip. -- in
7:36 AM 5:39 PM
Waxing Gibbous, 80% visible
Pressure 30.04 in
Visibility 2.0 miles
Clouds Mostly Cloudy 800 ft
Overcast 1400 ft
Windchill 29 °F
Dew Point 28 °F
Humidity 94%
Rainfall 0.00 in
Snow Depth Not available.
UV 0 out of 12
Pollen .10 out of 12
Air Quality Not available.
Flu Activity Not available.
METAR KCAK 300551Z 30011KT 2SM -SN BR BKN008 OVC014 M01/M03 A3000 RMK AO2 CIG 006V010 SLP170 4/004 P0001 60005 T10061028 10017 21006 51015 $

More Conditions Fewer Conditions

Pressure 30.04 in
Visibility 2.0 miles
Clouds Mostly Cloudy 800 ft
Overcast 1400 ft
Windchill 29 °F
Dew Point 28 °F
Humidity 94%
Rainfall 0.00 in
Snow Depth Not available.
UV 0 out of 12
Pollen .10 out of 12
Air Quality Not available.
Flu Activity Not available.
METAR KCAK 300551Z 30011KT 2SM -SN BR BKN008 OVC014 M01/M03 A3000 RMK AO2 CIG 006V010 SLP170 4/004 P0001 60005 T10061028 10017 21006 51015 $

More Conditions Fewer Conditions

Nowcast | as of 12:48 am EST on January 30, 2015

Patchy freezing drizzle will occur through 3 am along with light snow. Temperatures will fall through the 20s overnight...reaching the lower 20s by daybreak.

×

10-Day Weather Forecast

Almanac

Astronomy

Jan. 30, 2015 Rise Set
Actual Time
Civil Twilight
Nautical Twilight
Astronomical Twilight
Moon
Length of Visible Light
Length of Day
Tomorrow will be .
, % of the Moon is Illuminated

Today's Extremes

State Highs State Lows

Community

WunderPhotos

Upload Photos

1,791,722 photos uploaded!

WunderBlogs® & News

Nearby

Air Quality

  Air Quality AQ Index Pollutant
Not available.

Snow Depth

Station Depth Elevation

Earthquake Activity

City Distance Mag. Time & Date
Minimum magnitude displayed is 2.5.

Coastal Water Temperatures

Place Temperature

Nearby Weather Stations